Time;durP1;ratioP1;P1;durP2;ratioP2;P2;SDS_P1;SDS_P2;PMS_P1;PMS_P2;Temp;Humidity;BMP_temperature;BMP_pressure;BME280_temperature;BME280_humidity;BME280_pressure;Samples;Min_cycle;Max_cycle;Signal;HPM_P1;HPM_P2
2022/03/18 00:01:09;;;;;;;12.10;6.67;;;;;;;1.74;91.98;101883.25;5086371;28;20327;-77
2022/03/18 00:03:35;;;;;;;18.03;7.53;;;;;;;1.88;92.40;101912.34;5089399;28;20249;-77
2022/03/18 00:06:00;;;;;;;17.30;7.17;;;;;;;1.71;92.59;101896.41;5088994;28;20448;-77
2022/03/18 00:08:26;;;;;;;11.40;6.73;;;;;;;1.68;93.06;101876.47;5084916;28;20035;-77
2022/03/18 00:10:51;;;;;;;16.23;6.70;;;;;;;1.76;91.57;101895.34;5091376;28;20308;-77
2022/03/18 00:13:16;;;;;;;17.93;6.80;;;;;;;1.66;89.94;101903.53;5089297;28;20115;-77
2022/03/18 00:15:42;;;;;;;15.87;5.77;;;;;;;1.66;89.53;101885.28;5088670;28;20233;-77
2022/03/18 00:18:07;;;;;;;12.90;6.50;;;;;;;1.68;89.40;101906.97;5086775;28;20017;-77
2022/03/18 00:20:33;;;;;;;14.07;6.63;;;;;;;1.77;88.83;101912.72;5086277;28;20037;-76
2022/03/18 00:22:58;;;;;;;14.80;6.07;;;;;;;1.79;90.64;101912.66;5087003;28;20084;-76
2022/03/18 00:25:24;;;;;;;10.53;6.13;;;;;;;1.83;90.69;101909.03;5084198;28;20311;-77
2022/03/18 00:27:49;;;;;;;13.17;5.60;;;;;;;1.64;91.27;101902.75;5092589;28;20029;-77
2022/03/18 00:30:17;;;;;;;19.87;6.87;;;;;;;1.63;92.08;101895.81;5088797;28;20111;-77
2022/03/18 00:32:44;;;;;;;11.57;5.90;;;;;;;1.63;92.53;101901.03;5087324;28;20115;-77
2022/03/18 00:35:10;;;;;;;13.07;5.73;;;;;;;1.20;90.85;101840.69;5087742;28;20043;-77
2022/03/18 00:37:40;;;;;;;14.77;5.80;;;;;;;1.65;89.95;101902.69;5086125;28;20032;-76
2022/03/18 00:40:07;;;;;;;11.60;5.70;;;;;;;1.42;89.09;101898.25;5088304;28;20024;-76
2022/03/18 00:42:32;;;;;;;11.47;6.07;;;;;;;1.54;88.23;101910.03;5088723;28;20044;-77
2022/03/18 00:44:58;;;;;;;11.07;5.87;;;;;;;1.71;87.68;101909.47;5084730;28;20067;-77
2022/03/18 00:52:52;;;;;;;8.80;5.43;;;;;;;1.48;86.99;101891.97;5087854;28;20290;-76
2022/03/18 00:55:17;;;;;;;14.67;5.73;;;;;;;1.47;87.77;101900.72;5086968;28;20031;-76
2022/03/18 00:57:43;;;;;;;11.43;5.50;;;;;;;1.46;89.68;101910.31;5088128;28;20046;-77
2022/03/18 01:00:09;;;;;;;15.83;6.07;;;;;;;1.63;88.99;101899.28;5089892;28;20052;-77
2022/03/18 01:02:34;;;;;;;14.00;5.80;;;;;;;1.58;89.21;101909.88;5083133;28;20032;-77
2022/03/18 01:05:00;;;;;;;14.87;5.90;;;;;;;1.38;88.84;101886.22;5093989;28;20039;-76
2022/03/18 01:07:26;;;;;;;14.13;5.90;;;;;;;1.47;89.42;101909.41;5088996;28;20044;-77
2022/03/18 01:09:51;;;;;;;13.73;6.30;;;;;;;1.50;87.73;101909.28;5086079;28;20048;-77
2022/03/18 01:12:17;;;;;;;11.43;5.97;;;;;;;1.31;88.31;101907.34;5097262;28;20326;-77
2022/03/18 01:14:42;;;;;;;12.30;5.60;;;;;;;1.62;87.51;101922.84;5087835;28;20451;-77
2022/03/18 01:17:08;;;;;;;14.83;5.83;;;;;;;1.60;87.02;101922.88;5088411;28;20322;-77
2022/03/18 01:19:34;;;;;;;15.80;5.87;;;;;;;1.66;87.03;101914.84;5089619;28;20349;-77
2022/03/18 01:21:59;;;;;;;12.30;6.10;;;;;;;1.75;86.95;101909.31;5087196;28;20032;-77
2022/03/18 01:24:25;;;;;;;14.83;6.13;;;;;;;1.80;87.20;101925.66;5083960;28;20031;-77
2022/03/18 01:26:50;;;;;;;10.43;5.47;;;;;;;1.68;87.83;101922.63;5088794;28;20361;-77
2022/03/18 01:29:16;;;;;;;10.67;5.50;;;;;;;1.45;88.72;101884.25;5084961;28;20043;-77
2022/03/18 01:31:42;;;;;;;9.83;5.07;;;;;;;1.55;89.29;101911.75;5088333;28;20350;-77
2022/03/18 01:34:08;;;;;;;14.80;5.80;;;;;;;1.54;90.38;101928.31;5083582;28;20192;-77
2022/03/18 01:36:33;;;;;;;18.80;6.20;;;;;;;1.46;90.29;101925.09;5090046;28;20040;-77
2022/03/18 01:38:59;;;;;;;15.43;6.90;;;;;;;1.29;91.15;101925.66;5092921;28;20371;-77
2022/03/18 01:41:25;;;;;;;21.63;5.90;;;;;;;1.38;91.05;101921.91;5089018;28;20024;-76
2022/03/18 01:43:51;;;;;;;12.33;5.87;;;;;;;1.48;91.35;101933.75;5088831;28;20138;-77
2022/03/18 01:46:17;;;;;;;14.97;6.23;;;;;;;1.45;89.91;101939.06;5090431;28;20031;-77
2022/03/18 01:48:44;;;;;;;13.27;5.23;;;;;;;1.48;90.18;101944.19;5092905;28;20036;-77
2022/03/18 01:51:10;;;;;;;15.40;5.87;;;;;;;1.41;91.10;101927.03;5091181;28;20052;-77
2022/03/18 01:53:37;;;;;;;13.30;5.60;;;;;;;1.60;90.41;101944.63;5093075;28;20317;-77
2022/03/18 01:56:04;;;;;;;15.13;5.83;;;;;;;1.37;90.16;101914.97;5092485;28;20047;-77
2022/03/18 01:58:30;;;;;;;13.27;5.67;;;;;;;1.51;90.94;101942.34;5088729;28;20337;-77
2022/03/18 02:00:56;;;;;;;13.07;6.23;;;;;;;1.58;91.04;101951.66;5090578;28;20108;-77
2022/03/18 02:03:21;;;;;;;14.17;6.17;;;;;;;1.71;90.49;101959.09;5089673;28;20087;-77
2022/03/18 02:05:47;;;;;;;14.13;6.50;;;;;;;1.64;90.50;101942.78;5087162;28;20048;-77
2022/03/18 02:08:17;;;;;;;12.60;6.30;;;;;;;1.56;91.87;101936.94;5095641;28;20054;-77
2022/03/18 02:10:43;;;;;;;13.70;6.80;;;;;;;1.72;90.35;101969.47;5090346;28;20342;-77
2022/03/18 02:13:08;;;;;;;12.20;5.37;;;;;;;1.69;90.22;101947.84;5091092;28;20043;-77
2022/03/18 02:15:34;;;;;;;10.70;5.87;;;;;;;1.66;88.56;101947.94;5087104;28;20069;-77
2022/03/18 02:17:59;;;;;;;9.03;5.47;;;;;;;1.72;89.02;101972.09;5090441;28;20215;-77
2022/03/18 02:20:25;;;;;;;10.77;6.13;;;;;;;1.66;89.12;101954.03;5087461;28;20032;-77
2022/03/18 02:22:51;;;;;;;11.40;6.10;;;;;;;1.88;88.09;101967.22;5088441;28;20039;-77
2022/03/18 02:25:17;;;;;;;11.23;6.07;;;;;;;1.66;86.99;101955.78;5092394;28;20308;-77
2022/03/18 02:27:58;;;;;;;13.93;5.90;;;;;;;1.83;87.63;101964.75;5092203;28;20044;-77
2022/03/18 02:30:25;;;;;;;15.40;6.07;;;;;;;1.84;87.02;101969.06;5087608;28;20058;-76
2022/03/18 02:32:50;;;;;;;16.50;6.10;;;;;;;1.88;88.04;101978.50;5088693;28;20051;-77
2022/03/18 02:35:16;;;;;;;14.33;6.10;;;;;;;1.82;86.94;101963.03;5092446;28;20318;-77
2022/03/18 02:37:42;;;;;;;15.60;6.77;;;;;;;1.98;86.83;101973.81;5085998;28;20023;-77
2022/03/18 02:40:08;;;;;;;15.33;6.73;;;;;;;1.93;86.24;101976.59;5090168;28;20162;-77
2022/03/18 02:42:34;;;;;;;19.63;5.80;;;;;;;2.08;85.51;101979.59;5088093;28;20036;-77
2022/03/18 02:45:00;;;;;;;13.30;6.33;;;;;;;2.22;85.07;101979.97;5090443;28;20058;-77
2022/03/18 02:47:26;;;;;;;15.23;6.70;;;;;;;1.99;85.99;101985.97;5093583;28;20060;-77
2022/03/18 02:49:52;;;;;;;13.43;6.60;;;;;;;2.02;85.67;101987.63;5088009;28;20074;-77
2022/03/18 02:52:17;;;;;;;14.60;7.40;;;;;;;2.19;85.12;101986.16;5087570;28;20389;-77
2022/03/18 02:54:43;;;;;;;16.87;7.27;;;;;;;2.62;83.18;101992.47;5088331;28;20106;-77
2022/03/18 02:57:09;;;;;;;10.60;5.97;;;;;;;2.77;82.28;101998.91;5086157;28;20028;-77
2022/03/18 02:59:35;;;;;;;14.13;7.43;;;;;;;2.34;82.06;101976.94;5087188;28;20032;-77
2022/03/18 03:02:00;;;;;;;17.47;7.50;;;;;;;2.66;82.02;101974.91;5091097;28;20158;-77
2022/03/18 03:04:25;;;;;;;20.50;8.63;;;;;;;2.78;82.04;101987.53;5086799;28;20032;-77
2022/03/18 03:09:35;;;;;;;15.10;7.07;;;;;;;2.92;80.09;101998.31;5093361;28;20047;-77
2022/03/18 03:12:01;;;;;;;15.73;7.67;;;;;;;2.56;80.82;102003.16;5089638;28;20453;-77
2022/03/18 03:14:26;;;;;;;16.40;7.63;;;;;;;2.15;81.69;101994.19;5087064;28;20078;-77
2022/03/18 03:16:52;;;;;;;18.77;9.37;;;;;;;2.34;83.26;102015.28;5090029;28;20234;-77
2022/03/18 03:19:18;;;;;;;14.73;8.33;;;;;;;2.68;82.54;102021.00;5090611;28;20691;-76
2022/03/18 03:21:43;;;;;;;18.37;9.30;;;;;;;2.85;81.82;102002.06;5091594;28;20024;-75
2022/03/18 03:24:09;;;;;;;17.87;8.93;;;;;;;3.12;81.04;102008.91;5086871;28;20036;-75
2022/03/18 03:26:34;;;;;;;19.57;8.53;;;;;;;3.36;78.79;102007.09;5089817;28;20043;-74
2022/03/18 03:29:00;;;;;;;18.90;7.90;;;;;;;3.42;76.63;102006.00;5090055;28;20291;-77
2022/03/18 03:31:26;;;;;;;19.63;8.00;;;;;;;3.24;78.38;102018.06;5087797;28;20054;-77
2022/03/18 03:33:51;;;;;;;19.50;8.10;;;;;;;3.07;79.60;101995.13;5088877;28;20031;-77
2022/03/18 03:36:17;;;;;;;18.60;7.57;;;;;;;3.44;78.04;102028.59;5087810;28;20354;-77
2022/03/18 03:38:43;;;;;;;15.83;7.33;;;;;;;3.31;78.10;102030.00;5088587;28;20028;-77
2022/03/18 03:41:08;;;;;;;15.20;7.23;;;;;;;3.11;78.95;102033.34;5091235;28;20264;-77
2022/03/18 03:43:34;;;;;;;18.57;7.23;;;;;;;2.96;78.20;102009.53;5090619;28;20462;-77
2022/03/18 03:45:59;;;;;;;17.83;6.63;;;;;;;3.17;77.74;102027.91;5083957;28;20036;-77
2022/03/18 03:48:25;;;;;;;17.03;6.90;;;;;;;3.24;76.40;102015.44;5092204;28;20036;-77
2022/03/18 03:50:50;;;;;;;13.00;7.07;;;;;;;2.98;77.16;102028.63;5084814;28;20027;-77
2022/03/18 03:53:16;;;;;;;16.90;6.53;;;;;;;3.17;77.39;102045.38;5091977;28;20040;-77
2022/03/18 03:55:41;;;;;;;13.20;7.00;;;;;;;2.79;78.64;102049.41;5088606;28;20023;-77
2022/03/18 03:58:08;;;;;;;15.87;7.20;;;;;;;2.33;81.45;102040.59;5087480;28;20048;-77
2022/03/18 04:00:36;;;;;;;13.30;7.30;;;;;;;2.20;82.92;102048.00;5089380;28;20052;-77
2022/03/18 04:03:03;;;;;;;16.20;6.77;;;;;;;2.23;82.19;102033.97;5086298;28;20094;-77
2022/03/18 04:05:30;;;;;;;13.13;6.90;;;;;;;2.34;82.29;102044.06;5087457;28;20315;-77
2022/03/18 04:07:56;;;;;;;16.27;7.20;;;;;;;2.51;81.05;102042.56;5085200;28;20032;-77
2022/03/18 04:10:21;;;;;;;17.83;7.43;;;;;;;2.35;80.80;102037.91;5087325;28;20039;-77
2022/03/18 04:12:47;;;;;;;17.10;8.20;;;;;;;2.61;79.41;102056.16;5088872;28;20040;-77
2022/03/18 04:15:13;;;;;;;17.13;7.70;;;;;;;2.27;81.24;102060.84;5081693;28;20096;-77
2022/03/18 04:17:44;;;;;;;16.00;8.03;;;;;;;1.77;83.37;102032.88;5088213;28;20229;-76
2022/03/18 04:20:13;;;;;;;18.63;8.47;;;;;;;1.79;83.12;102035.44;5087332;28;20281;-77
2022/03/18 04:22:39;;;;;;;25.20;11.40;;;;;;;2.10;82.40;102057.06;5086992;28;20095;-77
2022/03/18 04:25:05;;;;;;;23.53;10.10;;;;;;;2.20;80.97;102049.75;5089470;28;20040;-77
2022/03/18 04:27:32;;;;;;;16.67;9.13;;;;;;;2.09;82.42;102062.34;5086702;28;20047;-77
2022/03/18 04:29:57;;;;;;;16.67;8.47;;;;;;;1.88;83.65;102062.09;5091698;28;20180;-77
2022/03/18 04:32:23;;;;;;;23.73;10.13;;;;;;;1.81;83.89;102058.00;5085641;28;20047;-77
2022/03/18 04:34:48;;;;;;;29.00;12.63;;;;;;;1.74;82.88;102069.53;5091825;28;20051;-77
2022/03/18 04:37:14;;;;;;;26.97;12.80;;;;;;;1.66;83.43;102068.94;5092462;28;20134;-77
2022/03/18 04:39:39;;;;;;;24.47;11.87;;;;;;;1.59;84.76;102059.59;5082893;28;20099;-77
2022/03/18 04:42:05;;;;;;;28.87;12.10;;;;;;;1.57;84.72;102062.25;5091600;28;20042;-77
2022/03/18 04:44:31;;;;;;;21.00;9.90;;;;;;;1.73;84.11;102066.97;5089833;28;20054;-77
2022/03/18 04:46:56;;;;;;;20.20;10.13;;;;;;;1.93;83.75;102081.09;5089229;28;20031;-77
2022/03/18 04:49:22;;;;;;;20.17;11.30;;;;;;;2.10;84.08;102082.34;5087329;28;20024;-77
2022/03/18 04:51:47;;;;;;;22.33;10.30;;;;;;;2.30;82.39;102058.13;5087807;28;20322;-77
2022/03/18 04:54:12;;;;;;;18.17;9.40;;;;;;;2.63;79.86;102083.09;5089897;28;20052;-77
2022/03/18 04:59:22;;;;;;;16.40;9.13;;;;;;;2.36;80.33;102082.31;5086016;28;20043;-77
2022/03/18 05:01:48;;;;;;;19.20;9.50;;;;;;;2.47;80.21;102085.41;5083147;28;20323;-77
2022/03/18 05:04:13;;;;;;;17.70;8.40;;;;;;;2.63;79.74;102088.34;5093419;28;20345;-77
2022/03/18 05:06:39;;;;;;;19.97;8.37;;;;;;;2.99;77.43;102099.25;5089609;28;20095;-77
2022/03/18 05:09:05;;;;;;;19.03;8.40;;;;;;;3.13;76.03;102099.63;5088284;28;20044;-77
2022/03/18 05:11:30;;;;;;;17.67;8.27;;;;;;;3.05;76.76;102103.41;5087879;28;20036;-77
2022/03/18 05:13:57;;;;;;;16.13;7.70;;;;;;;2.94;75.56;102072.38;5090705;28;20090;-77
2022/03/18 05:16:24;;;;;;;23.27;8.60;;;;;;;3.09;74.94;102102.38;5088038;28;20028;-77
2022/03/18 05:18:52;;;;;;;16.20;8.27;;;;;;;2.85;75.74;102111.97;5121667;27;20205;-76
2022/03/18 05:21:17;;;;;;;19.03;8.57;;;;;;;2.74;76.84;102108.88;5097664;28;20103;-76
2022/03/18 05:23:43;;;;;;;17.73;9.50;;;;;;;2.77;76.98;102103.53;5090695;28;20359;-77
2022/03/18 05:26:09;;;;;;;18.37;9.20;;;;;;;2.92;76.84;102115.22;5087813;28;20048;-77
2022/03/18 05:28:35;;;;;;;18.93;9.00;;;;;;;2.97;75.97;102114.16;5087664;28;20032;-77
2022/03/18 05:31:00;;;;;;;20.20;9.67;;;;;;;2.83;76.80;102127.72;5098933;28;20077;-77
2022/03/18 05:33:26;;;;;;;21.73;11.67;;;;;;;2.89;76.40;102121.41;5090374;28;20091;-77
2022/03/18 05:35:52;;;;;;;23.37;11.23;;;;;;;2.79;76.52;102136.59;5092100;28;20095;-77
2022/03/18 05:38:17;;;;;;;20.73;10.93;;;;;;;2.86;76.45;102125.00;5093097;28;20030;-77
2022/03/18 05:40:43;;;;;;;18.73;9.30;;;;;;;2.93;76.03;102135.25;5089753;28;20036;-77
2022/03/18 05:43:09;;;;;;;21.93;7.77;;;;;;;2.81;75.95;102123.47;5090398;28;20227;-77
2022/03/18 05:45:34;;;;;;;19.57;8.43;;;;;;;2.82;76.68;102144.34;5091415;28;20066;-77
2022/03/18 05:48:00;;;;;;;16.00;8.20;;;;;;;2.78;76.69;102142.72;5093726;28;20334;-77
2022/03/18 05:50:26;;;;;;;21.80;8.23;;;;;;;3.00;75.62;102137.59;5095196;28;20326;-77
2022/03/18 05:52:52;;;;;;;18.17;8.20;;;;;;;3.33;75.05;102142.53;5089606;28;20033;-77
2022/03/18 05:55:17;;;;;;;14.93;8.40;;;;;;;3.55;72.98;102126.84;5091508;28;20027;-78
2022/03/18 05:57:43;;;;;;;15.90;8.10;;;;;;;4.00;71.39;102158.25;5093157;28;20070;-75
2022/03/18 06:00:09;;;;;;;15.00;7.63;;;;;;;3.99;71.28;102154.78;5095502;28;20039;-75
2022/03/18 06:02:35;;;;;;;17.20;7.60;;;;;;;4.47;70.72;102161.59;5090124;28;20047;-74
2022/03/18 06:05:02;;;;;;;16.60;8.23;;;;;;;4.54;69.12;102146.47;5091869;28;20107;-74
2022/03/18 06:07:27;;;;;;;20.70;8.87;;;;;;;4.61;68.29;102161.88;5091554;28;20032;-75
2022/03/18 06:12:37;;;;;;;20.08;9.95;;;;;;;4.98;68.84;102158.50;5089719;28;20362;-75
2022/03/18 06:15:04;;;;;;;20.03;9.13;;;;;;;5.55;66.72;102177.00;5090908;28;20326;-75
2022/03/18 06:17:29;;;;;;;17.97;9.33;;;;;;;5.48;65.55;102171.19;5093317;28;20207;-75
2022/03/18 06:19:55;;;;;;;18.60;9.60;;;;;;;5.28;64.79;102174.72;5095156;28;20032;-75
2022/03/18 06:22:20;;;;;;;18.43;9.43;;;;;;;5.42;63.00;102181.97;5089308;28;20036;-75
2022/03/18 06:24:46;;;;;;;20.03;9.83;;;;;;;5.84;62.39;102184.41;5123574;27;20104;-75
2022/03/18 06:27:11;;;;;;;29.45;11.15;;;;;;;6.01;62.31;102160.81;5091344;28;20039;-75
2022/03/18 06:29:39;;;;;;;27.60;12.57;;;;;;;6.05;62.32;102162.34;5096259;28;20040;-75
2022/03/18 06:32:05;;;;;;;16.35;9.07;;;;;;;6.06;60.48;102153.53;5088010;28;20100;-75
2022/03/18 06:34:31;;;;;;;19.02;9.00;;;;;;;6.59;58.90;102171.13;5091363;28;20103;-75
2022/03/18 06:37:03;;;;;;;18.13;8.68;;;;;;;6.80;57.85;102186.75;5092682;28;20254;-75
2022/03/18 06:39:28;;;;;;;21.63;8.45;;;;;;;6.88;57.77;102176.69;5092088;28;20111;-75
2022/03/18 06:41:55;;;;;;;16.55;8.60;;;;;;;7.10;58.63;102184.31;5089435;28;20329;-77
2022/03/18 06:44:21;;;;;;;15.07;8.50;;;;;;;7.52;55.49;102163.59;5090870;28;20295;-78
2022/03/18 06:46:46;;;;;;;13.27;7.18;;;;;;;8.19;53.92;102190.66;5091611;28;20020;-78
2022/03/18 06:49:13;;;;;;;16.15;7.10;;;;;;;7.97;54.55;102194.50;5094237;28;20098;-78
2022/03/18 06:51:39;;;;;;;14.30;6.85;;;;;;;7.84;54.01;102198.75;5087376;28;20028;-78
2022/03/18 06:54:05;;;;;;;13.98;6.60;;;;;;;8.09;53.85;102198.25;5089852;28;20213;-78
2022/03/18 06:56:30;;;;;;;10.57;7.10;;;;;;;8.07;51.55;102194.84;5090469;28;20051;-78
2022/03/18 06:58:56;;;;;;;12.25;6.88;;;;;;;8.58;49.28;102192.84;5092938;28;20041;-78
2022/03/18 07:01:22;;;;;;;12.65;6.40;;;;;;;8.76;47.95;102207.63;5087672;28;20040;-78
2022/03/18 07:03:48;;;;;;;17.13;6.68;;;;;;;9.15;45.49;102199.09;5088434;28;20036;-78
2022/03/18 07:06:14;;;;;;;14.07;6.78;;;;;;;9.53;44.21;102196.78;5091278;28;20251;-78
2022/03/18 07:08:40;;;;;;;12.02;5.78;;;;;;;9.37;44.40;102200.47;5091861;28;20062;-78
2022/03/18 07:11:06;;;;;;;11.48;6.38;;;;;;;8.68;45.52;102209.00;5096949;28;20082;-78
2022/03/18 07:13:32;;;;;;;12.55;5.97;;;;;;;7.97;46.98;102209.50;5089184;28;20040;-78
2022/03/18 07:17:55;;;;;;;12.63;6.65;;;;;;;8.18;46.22;102218.84;5090170;28;20243;-78
2022/03/18 07:18:46;;;;;;;19.63;6.05;;;;;;;8.80;44.63;102203.00;5092115;28;20032;-78
2022/03/18 07:21:11;;;;;;;12.75;6.40;;;;;;;9.48;43.23;102198.84;5092308;28;20105;-78
2022/03/18 07:23:37;;;;;;;11.45;6.07;;;;;;;9.88;39.22;102199.84;5087834;28;20061;-78
2022/03/18 07:26:02;;;;;;;9.38;5.70;;;;;;;10.09;35.38;102188.81;5088262;28;20032;-77
2022/03/18 07:28:28;;;;;;;11.75;5.60;;;;;;;10.33;36.19;102204.94;5090956;28;20256;-78
2022/03/18 07:30:53;;;;;;;15.63;7.50;;;;;;;10.14;38.00;102190.22;5092522;28;20028;-78
2022/03/18 07:33:19;;;;;;;10.55;5.78;;;;;;;8.94;41.38;102209.19;5087561;28;20096;-78
2022/03/18 07:35:44;;;;;;;14.60;6.15;;;;;;;9.10;44.00;102205.63;5091185;28;20028;-77
2022/03/18 07:38:10;;;;;;;15.40;6.65;;;;;;;8.64;39.87;102225.03;5090422;28;20033;-78
2022/03/18 07:40:39;;;;;;;13.82;6.35;;;;;;;9.05;37.45;102212.97;5092034;28;20056;-77
2022/03/18 07:43:09;;;;;;;12.20;5.95;;;;;;;8.43;37.81;102214.88;5096477;28;20326;-78
2022/03/18 07:45:37;;;;;;;12.18;5.72;;;;;;;7.58;40.45;102223.91;5088268;28;20029;-77
2022/03/18 07:48:07;;;;;;;12.70;5.47;;;;;;;7.61;40.04;102225.53;5084005;28;20245;-78
2022/03/18 07:50:35;;;;;;;9.00;5.00;;;;;;;7.89;39.33;102216.97;5094281;28;20032;-78
2022/03/18 07:53:05;;;;;;;9.40;5.35;;;;;;;8.50;38.23;102225.00;5101015;28;20043;-78
2022/03/18 07:55:33;;;;;;;11.38;5.03;;;;;;;8.49;36.87;102215.38;5100110;28;20036;-78
2022/03/18 07:57:59;;;;;;;9.73;5.35;;;;;;;9.48;37.23;102206.78;5098923;28;20047;-78
2022/03/18 08:00:25;;;;;;;14.00;6.30;;;;;;;9.95;36.51;102220.63;5100154;28;20326;-76
2022/03/18 08:02:53;;;;;;;11.20;5.93;;;;;;;9.71;35.40;102215.94;5099441;28;20020;-76
2022/03/18 08:05:19;;;;;;;12.13;5.28;;;;;;;8.98;36.38;102216.91;5099376;28;20041;-75
2022/03/18 08:07:46;;;;;;;9.02;5.13;;;;;;;9.39;36.68;102215.28;5099223;28;20230;-78
2022/03/18 08:10:13;;;;;;;9.13;5.00;;;;;;;8.92;34.90;102205.78;5100078;28;20036;-77
2022/03/18 08:12:40;;;;;;;10.70;4.93;;;;;;;8.50;37.21;102205.66;5099273;28;20028;-78
2022/03/18 08:15:10;;;;;;;11.52;5.45;;;;;;;8.21;35.65;102196.69;5097328;28;20036;-78
2022/03/18 08:17:40;;;;;;;15.00;6.18;;;;;;;9.03;36.15;102191.06;5098804;28;20111;-78
2022/03/18 08:20:07;;;;;;;12.18;5.55;;;;;;;9.52;34.08;102204.81;5100407;28;20059;-78
2022/03/18 08:22:32;;;;;;;12.55;5.75;;;;;;;9.50;35.08;102204.06;5097518;28;20016;-78
2022/03/18 08:24:58;;;;;;;12.98;6.22;;;;;;;9.35;34.58;102197.88;5101414;28;20038;-78
2022/03/18 08:27:23;;;;;;;12.25;5.57;;;;;;;8.76;39.31;102190.94;5099982;28;20027;-78
2022/03/18 08:29:49;;;;;;;8.52;5.40;;;;;;;8.76;35.10;102186.50;5098043;28;20096;-76
2022/03/18 08:32:17;;;;;;;13.25;5.38;;;;;;;8.60;35.98;102194.47;5098849;28;20035;-77
2022/03/18 08:34:43;;;;;;;8.27;5.05;;;;;;;8.76;34.89;102185.66;5099038;28;20048;-77
2022/03/18 08:37:10;;;;;;;11.80;6.00;;;;;;;9.38;33.26;102184.50;5100065;28;20044;-78
2022/03/18 08:39:41;;;;;;;25.92;8.82;;;;;;;9.59;34.06;102192.91;5099445;28;20061;-78
2022/03/18 08:42:07;;;;;;;14.05;5.10;;;;;;;9.21;34.81;102193.44;5099978;28;20043;-78
2022/03/18 08:44:33;;;;;;;14.10;5.93;;;;;;;9.45;35.81;102172.59;5098906;28;20404;-79
2022/03/18 08:46:59;;;;;;;27.83;6.38;;;;;;;9.97;35.43;102185.16;5099852;28;20052;-79
2022/03/18 08:49:24;;;;;;;11.80;5.88;;;;;;;10.18;36.40;102161.75;5104266;28;20063;-78
2022/03/18 08:51:50;;;;;;;13.82;5.68;;;;;;;9.79;35.56;102176.63;5101460;28;20036;-78
2022/03/18 08:54:16;;;;;;;10.98;5.50;;;;;;;9.23;36.48;102177.50;5104439;28;20115;-76
2022/03/18 08:56:42;;;;;;;9.68;5.40;;;;;;;9.04;36.53;102179.56;5103268;28;20114;-76
2022/03/18 08:59:07;;;;;;;12.23;5.63;;;;;;;8.86;35.73;102169.16;5098834;28;20099;-77
2022/03/18 09:01:34;;;;;;;12.90;5.55;;;;;;;8.84;35.99;102162.25;5103518;28;20044;-78
2022/03/18 09:03:59;;;;;;;13.40;5.40;;;;;;;9.36;35.79;102172.28;5102907;28;20070;-78
2022/03/18 09:06:25;;;;;;;11.60;5.47;;;;;;;9.92;36.15;102174.03;5103033;28;20036;-78
2022/03/18 09:08:50;;;;;;;8.88;5.05;;;;;;;10.22;33.83;102157.97;5101962;28;20028;-78
2022/03/18 09:11:16;;;;;;;9.10;5.15;;;;;;;10.31;32.61;102160.03;5103503;28;20334;-75
2022/03/18 09:13:41;;;;;;;10.45;4.90;;;;;;;10.14;32.95;102162.91;5103529;28;20256;-75
2022/03/18 09:16:07;;;;;;;11.02;5.07;;;;;;;10.70;30.77;102156.53;5101387;28;20032;-75
2022/03/18 09:18:32;;;;;;;11.13;5.53;;;;;;;10.66;30.44;102154.19;5103074;28;20204;-74
2022/03/18 09:20:58;;;;;;;10.27;5.40;;;;;;;10.15;29.84;102161.94;5101922;28;20314;-76
2022/03/18 09:23:24;;;;;;;10.77;5.38;;;;;;;9.52;30.04;102160.69;5103819;28;20347;-77
2022/03/18 09:25:50;;;;;;;10.07;4.68;;;;;;;9.00;34.09;102156.91;5100366;28;20348;-77
2022/03/18 09:28:16;;;;;;;9.95;4.70;;;;;;;8.64;32.02;102160.81;5101909;28;20047;-77
2022/03/18 09:30:42;;;;;;;10.77;5.47;;;;;;;8.84;31.56;102149.91;5103071;28;20031;-77
2022/03/18 09:33:08;;;;;;;12.02;5.80;;;;;;;8.54;32.22;102155.22;5102672;28;20237;-77
2022/03/18 09:35:34;;;;;;;12.90;5.70;;;;;;;8.83;35.03;102145.56;5103187;28;20026;-77
2022/03/18 09:38:00;;;;;;;15.38;6.50;;;;;;;9.25;34.02;102149.16;5102679;28;20028;-77
2022/03/18 09:40:25;;;;;;;17.15;7.30;;;;;;;9.19;34.89;102147.75;5102641;28;20058;-78
2022/03/18 09:43:00;;;;;;;11.52;5.78;;;;;;;8.98;33.90;102137.66;5102743;28;20028;-75
2022/03/18 09:45:31;;;;;;;11.77;5.38;;;;;;;9.05;33.90;102152.19;5100851;28;20032;-75
2022/03/18 09:48:02;;;;;;;10.68;5.35;;;;;;;9.00;34.70;102143.69;5102025;28;20350;-75
2022/03/18 09:50:29;;;;;;;10.40;5.47;;;;;;;8.98;34.67;102141.13;5103670;28;20031;-77
2022/03/18 09:52:55;;;;;;;8.68;4.90;;;;;;;9.16;34.57;102124.16;5101244;28;20023;-78
2022/03/18 09:55:20;;;;;;;11.55;6.75;;;;;;;8.59;33.46;102133.81;5103153;28;20039;-78
2022/03/18 09:57:46;;;;;;;11.63;5.75;;;;;;;8.13;34.39;102141.72;5101559;28;20016;-77
2022/03/18 10:00:12;;;;;;;7.53;4.88;;;;;;;8.49;36.43;102136.16;5102118;28;20040;-78
2022/03/18 10:02:38;;;;;;;8.35;4.47;;;;;;;9.02;34.25;102128.59;5102440;28;20218;-78
2022/03/18 10:05:09;;;;;;;43.35;10.35;;;;;;;9.01;33.41;102108.38;5102337;28;20043;-78
2022/03/18 10:07:35;;;;;;;14.15;5.65;;;;;;;9.00;32.92;102117.25;5101573;28;20020;-78
2022/03/18 10:10:05;;;;;;;12.32;5.78;;;;;;;8.96;34.78;102103.38;5101840;28;20322;-78
2022/03/18 10:12:35;;;;;;;11.85;5.65;;;;;;;8.55;37.21;102114.66;5100932;28;20106;-78
2022/03/18 10:15:16;;;;;;;10.40;6.13;;;;;;;8.32;38.26;102126.56;5102687;28;20042;-77
2022/03/18 10:17:50;;;;;;;12.48;6.13;;;;;;;7.72;37.90;102122.09;5096110;28;20027;-78
2022/03/18 10:20:24;;;;;;;13.45;6.03;;;;;;;8.30;38.07;102135.47;5095564;28;20058;-78
2022/03/18 10:22:50;;;;;;;12.23;6.25;;;;;;;8.55;37.45;102129.66;5095016;28;20039;-77
2022/03/18 10:25:42;;;;;;;10.23;5.75;;;;;;;8.01;36.36;102130.06;5095011;28;20320;-78
2022/03/18 10:28:10;;;;;;;11.05;5.57;;;;;;;8.24;37.29;102127.91;5096387;28;20040;-76
2022/03/18 10:30:36;;;;;;;9.55;5.22;;;;;;;8.37;36.81;102122.81;5094854;28;20240;-78
2022/03/18 10:33:02;;;;;;;12.45;6.07;;;;;;;8.31;35.53;102123.97;5095614;28;20047;-78
2022/03/18 10:38:35;;;;;;;15.60;5.90;;;;;;;7.89;37.00;102099.13;5096909;28;20053;-77
2022/03/18 10:41:23;;;;;;;9.32;5.10;;;;;;;8.19;34.80;102100.94;5096321;28;20048;-77
2022/03/18 10:43:55;;;;;;;13.43;6.07;;;;;;;8.46;37.05;102109.94;5094442;28;20248;-78
2022/03/18 10:46:21;;;;;;;10.95;5.13;;;;;;;8.60;37.09;102090.63;5096747;28;20477;-79
2022/03/18 10:49:06;;;;;;;10.52;4.82;;;;;;;8.72;38.77;102074.03;5094611;28;20097;-78
2022/03/18 10:51:34;;;;;;;9.80;5.40;;;;;;;9.00;38.85;102099.59;5095020;28;20056;-77
2022/03/18 10:54:00;;;;;;;10.50;4.85;;;;;;;9.18;36.36;102095.81;5095401;28;20059;-78
2022/03/18 10:56:26;;;;;;;9.02;5.20;;;;;;;9.41;35.55;102093.56;5094477;28;20036;-75
2022/03/18 10:58:52;;;;;;;12.18;5.25;;;;;;;9.29;35.84;102098.66;5094343;28;20207;-76
2022/03/18 11:01:18;;;;;;;11.30;5.65;;;;;;;8.82;36.75;102096.31;5094845;28;20052;-75
2022/03/18 11:03:45;;;;;;;13.23;5.97;;;;;;;8.10;37.21;102102.31;5095628;28;20037;-75
2022/03/18 11:06:12;;;;;;;11.15;5.50;;;;;;;7.59;39.99;102074.47;5094201;28;20038;-78
2022/03/18 11:08:44;;;;;;;9.63;5.35;;;;;;;8.06;38.69;102105.22;5094880;28;20032;-78
2022/03/18 11:11:15;;;;;;;10.38;5.50;;;;;;;8.15;37.63;102104.69;5094306;28;20338;-78
2022/03/18 11:14:03;;;;;;;13.70;5.60;;;;;;;8.28;35.54;102097.75;5095157;28;20326;-78
2022/03/18 11:16:35;;;;;;;9.60;5.80;;;;;;;8.74;35.05;102095.91;5095498;28;20020;-78
2022/03/18 11:19:08;;;;;;;19.55;6.85;;;;;;;8.72;34.38;102097.81;5096819;28;20372;-78
2022/03/18 11:21:40;;;;;;;9.82;4.97;;;;;;;8.91;36.54;102097.53;5094819;28;20036;-78
2022/03/18 11:24:14;;;;;;;7.65;4.43;;;;;;;9.27;35.44;102099.69;5094392;28;20036;-76
2022/03/18 11:26:47;;;;;;;;;;;;;;;9.28;33.48;102096.09;5094928;28;20225;-76
2022/03/18 11:29:16;;;;;;;14.88;6.43;;;;;;;9.43;33.09;102097.81;5094051;28;19962;-78
2022/03/18 11:31:42;;;;;;;11.43;5.85;;;;;;;9.65;33.78;102094.63;5095040;28;20047;-76
2022/03/18 11:34:14;;;;;;;10.70;5.07;;;;;;;9.47;34.25;102075.50;5093888;28;20372;-75
2022/03/18 11:37:04;;;;;;;9.32;4.72;;;;;;;9.23;36.13;102071.75;5094627;28;20043;-75
2022/03/18 11:39:30;;;;;;;8.90;5.25;;;;;;;8.82;37.30;102067.25;5092348;28;20090;-75
2022/03/18 11:41:57;;;;;;;10.10;4.80;;;;;;;8.60;36.81;102072.13;5094508;28;20027;-77